createdAt,value
2022-08-25T00:00:20.848Z,19.08
2022-08-25T00:02:56.164Z,17.42
2022-08-25T00:05:33.326Z,26.95
2022-08-25T00:08:03.069Z,19.67
2022-08-25T00:10:31.716Z,19.38
2022-08-25T00:13:00.692Z,20.60
2022-08-25T00:15:32.501Z,16.10
2022-08-25T00:18:01.883Z,14.43
2022-08-25T00:20:32.247Z,16.13
2022-08-25T00:23:00.711Z,18.75
2022-08-25T00:25:29.240Z,16.85
2022-08-25T00:27:59.253Z,16.00
2022-08-25T00:30:27.797Z,13.60
2022-08-25T00:32:57.573Z,19.42
2022-08-25T00:35:27.752Z,22.55
2022-08-25T00:37:57.646Z,19.30
2022-08-25T00:40:27.601Z,18.83
2022-08-25T00:42:56.906Z,16.35
2022-08-25T00:45:25.588Z,20.25
2022-08-25T00:47:54.294Z,19.25
2022-08-25T00:50:26.651Z,16.60
2022-08-25T00:53:00.610Z,19.00
2022-08-25T00:55:32.158Z,12.20
2022-08-25T00:58:07.026Z,18.88
2022-08-25T01:00:38.449Z,12.52
2022-08-25T01:03:07.688Z,14.27
2022-08-25T01:05:36.935Z,15.02
2022-08-25T01:08:09.208Z,14.00
2022-08-25T01:10:42.564Z,15.25
2022-08-25T01:13:16.514Z,13.57
2022-08-25T01:15:46.482Z,13.27
2022-08-25T01:18:16.094Z,17.48
2022-08-25T01:20:46.839Z,14.70
2022-08-25T01:23:16.734Z,19.35
2022-08-25T01:25:51.707Z,12.38
2022-08-25T01:28:21.388Z,15.15
2022-08-25T01:30:50.305Z,16.60
2022-08-25T01:33:18.855Z,16.63
2022-08-25T01:35:47.465Z,17.67
2022-08-25T01:38:18.097Z,19.95
2022-08-25T01:40:46.549Z,17.15
2022-08-25T01:43:23.155Z,16.42
2022-08-25T01:48:20.872Z,17.10
2022-08-25T01:50:49.387Z,17.10
2022-08-25T01:53:24.615Z,17.90
2022-08-25T01:55:54.411Z,14.82
2022-08-25T01:58:25.162Z,19.50
2022-08-25T02:00:57.076Z,18.80
2022-08-25T02:03:26.992Z,17.38
2022-08-25T02:05:56.172Z,17.25
2022-08-25T02:08:26.780Z,16.58
2022-08-25T02:10:55.779Z,17.35
2022-08-25T02:13:31.175Z,17.00
2022-08-25T02:16:02.533Z,17.33
2022-08-25T02:18:31.181Z,21.20
2022-08-25T02:20:59.800Z,20.25
2022-08-25T02:23:29.738Z,18.65
2022-08-25T02:25:58.466Z,20.60
2022-08-25T02:28:27.156Z,19.70
2022-08-25T02:31:01.649Z,17.38
2022-08-25T02:33:30.650Z,17.08
2022-08-25T02:36:00.333Z,17.20
2022-08-25T02:38:30.747Z,17.35
2022-08-25T02:41:00.615Z,23.27
2022-08-25T02:43:30.179Z,17.90
2022-08-25T02:46:00.027Z,16.45
2022-08-25T02:48:28.654Z,14.50
2022-08-25T02:51:00.891Z,16.75
2022-08-25T02:53:31.560Z,15.98
2022-08-25T02:56:00.406Z,16.17
2022-08-25T02:58:29.225Z,19.85
2022-08-25T03:00:57.999Z,18.63
2022-08-25T03:03:26.730Z,15.25
2022-08-25T03:05:57.520Z,13.90
2022-08-25T03:08:26.448Z,19.30
2022-08-25T03:10:56.243Z,17.70
2022-08-25T03:13:24.710Z,15.00
2022-08-25T03:15:54.447Z,16.83
2022-08-25T03:18:23.861Z,15.85
2022-08-25T03:20:53.096Z,16.85
2022-08-25T03:23:22.014Z,19.45
2022-08-25T03:26:08.118Z,13.90
2022-08-25T03:28:39.042Z,13.82
2022-08-25T03:31:07.840Z,11.68
2022-08-25T03:33:36.757Z,15.73
2022-08-25T03:36:06.257Z,17.05
2022-08-25T03:38:34.754Z,17.08
2022-08-25T03:41:03.373Z,14.98
2022-08-25T03:43:31.905Z,19.40
2022-08-25T03:46:01.682Z,14.75
2022-08-25T03:48:30.070Z,16.60
2022-08-25T03:50:58.481Z,22.42
2022-08-25T03:53:27.007Z,19.42
2022-08-25T03:55:55.400Z,13.60
2022-08-25T03:58:24.011Z,21.92
2022-08-25T04:00:52.528Z,20.35
2022-08-25T04:03:22.390Z,15.63
2022-08-25T04:05:50.780Z,21.33
2022-08-25T04:08:19.523Z,18.80
2022-08-25T04:10:48.857Z,15.60
2022-08-25T04:13:18.454Z,18.40
2022-08-25T04:15:46.893Z,20.98
2022-08-25T04:18:16.139Z,15.68
2022-08-25T04:20:47.590Z,16.70
2022-08-25T04:23:15.973Z,24.48
2022-08-25T04:25:46.192Z,20.23
2022-08-25T04:28:14.788Z,16.08
2022-08-25T04:30:48.126Z,18.13
2022-08-25T04:33:20.029Z,14.07
2022-08-25T04:35:51.035Z,19.42
2022-08-25T04:38:19.469Z,14.98
2022-08-25T04:40:47.943Z,14.85
2022-08-25T04:43:16.401Z,15.35
2022-08-25T04:45:44.956Z,15.63
2022-08-25T04:48:13.423Z,9.77
2022-08-25T04:50:41.864Z,13.70
2022-08-25T04:53:11.912Z,13.45
2022-08-25T04:55:42.515Z,12.43
2022-08-25T04:58:14.704Z,14.90
2022-08-25T05:00:46.848Z,9.77
2022-08-25T05:03:15.579Z,13.73
2022-08-25T05:05:43.997Z,13.85
2022-08-25T05:08:13.912Z,19.77
2022-08-25T05:10:43.307Z,15.00
2022-08-25T05:13:12.261Z,12.75
2022-08-25T05:15:53.048Z,14.75
2022-08-25T05:18:23.171Z,14.27
2022-08-25T05:20:53.894Z,12.93
2022-08-25T05:23:24.935Z,14.82
2022-08-25T05:25:54.749Z,14.35
2022-08-25T05:28:23.664Z,18.55
2022-08-25T05:30:52.231Z,12.45
2022-08-25T05:33:20.688Z,15.13
2022-08-25T05:35:49.083Z,13.55
2022-08-25T05:38:19.847Z,18.63
2022-08-25T05:40:49.886Z,19.73
2022-08-25T05:43:18.332Z,18.25
2022-08-25T05:45:47.617Z,15.00
2022-08-25T05:48:16.136Z,16.92
2022-08-25T05:50:52.821Z,16.92
2022-08-25T05:53:21.313Z,14.20
2022-08-25T05:55:52.489Z,13.48
2022-08-25T05:58:21.532Z,13.57
2022-08-25T06:00:50.155Z,11.73
2022-08-25T06:03:17.806Z,14.57
2022-08-25T06:05:46.284Z,10.52
2022-08-25T06:08:16.017Z,8.23
2022-08-25T06:10:44.499Z,9.95
2022-08-25T06:13:14.526Z,9.77
2022-08-25T06:15:42.946Z,9.57
2022-08-25T06:18:11.325Z,10.90
2022-08-25T06:20:39.864Z,9.60
2022-08-25T06:23:08.439Z,8.27
2022-08-25T06:25:36.916Z,10.63
2022-08-25T06:28:05.721Z,11.65
2022-08-25T06:30:35.714Z,9.77
2022-08-25T06:33:04.337Z,10.27
2022-08-25T06:35:32.803Z,7.75
2022-08-25T06:38:03.865Z,11.27
2022-08-25T06:40:32.418Z,8.88
2022-08-25T06:43:01.009Z,9.13
2022-08-25T06:45:29.531Z,7.47
2022-08-25T06:48:00.561Z,9.07
2022-08-25T06:50:29.100Z,13.63
2022-08-25T06:52:57.931Z,12.18
2022-08-25T06:55:26.463Z,12.20
2022-08-25T06:57:55.249Z,11.80
2022-08-25T07:00:30.306Z,13.13
2022-08-25T07:03:01.661Z,12.85
2022-08-25T07:05:42.933Z,9.27
2022-08-25T07:08:12.660Z,10.88
2022-08-25T07:10:41.096Z,12.32
2022-08-25T07:13:15.302Z,14.15
2022-08-25T07:15:45.208Z,9.45
2022-08-25T07:18:15.764Z,10.55
2022-08-25T07:20:44.325Z,7.38
2022-08-25T07:23:13.118Z,9.77
2022-08-25T07:25:41.644Z,10.50
2022-08-25T07:28:10.102Z,10.55
2022-08-25T07:30:39.011Z,12.63
2022-08-25T07:33:08.671Z,9.05
2022-08-25T07:35:38.085Z,7.40
2022-08-25T07:38:09.132Z,8.80
2022-08-25T07:40:42.692Z,12.00
2022-08-25T07:43:11.952Z,9.82
2022-08-25T07:45:46.885Z,9.02
2022-08-25T07:48:19.906Z,10.05
2022-08-25T07:50:50.678Z,9.77
2022-08-25T07:53:19.817Z,7.68
2022-08-25T07:55:48.214Z,7.18
2022-08-25T07:58:16.675Z,7.88
2022-08-25T08:00:48.918Z,7.18
2022-08-25T08:03:42.162Z,9.10
2022-08-25T08:06:11.326Z,12.32
2022-08-25T08:08:40.241Z,8.23
2022-08-25T08:11:16.518Z,8.57
2022-08-25T08:13:45.065Z,8.35
2022-08-25T08:16:15.616Z,8.48
2022-08-25T08:18:44.437Z,8.98
2022-08-25T08:21:19.100Z,7.80
2022-08-25T08:23:49.387Z,8.18
2022-08-25T08:26:18.046Z,9.15
2022-08-25T08:28:51.987Z,7.70
2022-08-25T08:31:21.539Z,7.47
2022-08-25T08:33:50.567Z,6.93
2022-08-25T08:36:21.642Z,8.60
2022-08-25T08:38:54.035Z,8.15
2022-08-25T08:42:11.638Z,10.15
2022-08-25T08:44:51.565Z,6.93
2022-08-25T08:47:29.952Z,8.15
2022-08-25T08:50:05.964Z,7.43
2022-08-25T08:55:19.620Z,7.00
2022-08-25T08:57:51.066Z,6.80
2022-08-25T09:00:19.701Z,6.63
2022-08-25T09:02:54.071Z,7.90
2022-08-25T09:05:27.813Z,7.88
2022-08-25T09:08:00.912Z,5.40
2022-08-25T09:10:37.117Z,5.63
2022-08-25T09:13:15.431Z,7.07
2022-08-25T09:16:08.859Z,7.25
2022-08-25T09:18:51.297Z,6.00
2022-08-25T10:25:33.147Z,7.35
2022-08-25T10:28:16.503Z,6.45
2022-08-25T10:30:57.486Z,6.45
2022-08-25T10:33:34.805Z,6.75
2022-08-25T10:36:14.254Z,6.55
2022-08-25T10:38:45.411Z,8.73
2022-08-25T10:41:36.696Z,6.57
2022-08-25T10:44:30.430Z,5.00
2022-08-25T10:47:21.258Z,4.35
2022-08-25T10:49:56.682Z,7.15
2022-08-25T10:52:39.118Z,7.90
2022-08-25T10:55:18.990Z,7.63
2022-08-25T10:57:57.909Z,5.88
2022-08-25T11:00:33.477Z,5.30
2022-08-25T11:03:16.575Z,8.02
2022-08-25T11:05:52.879Z,9.90
2022-08-25T11:08:34.652Z,5.90
2022-08-25T11:11:09.927Z,6.10
2022-08-25T11:13:44.658Z,6.38
2022-08-25T11:16:18.802Z,9.03
2022-08-25T11:19:00.901Z,6.50
2022-08-25T11:21:42.044Z,6.72
2022-08-25T11:24:32.411Z,7.47
2022-08-25T11:27:07.854Z,6.88
2022-08-25T11:29:39.556Z,7.88
2022-08-25T11:32:09.973Z,5.95
2022-08-25T11:34:43.705Z,6.10
2022-08-25T11:37:23.201Z,6.75
2022-08-25T11:40:11.902Z,8.52
2022-08-25T11:42:52.315Z,7.07
2022-08-25T11:45:54.363Z,9.55
2022-08-25T11:48:43.783Z,6.70
2022-08-25T11:51:33.762Z,5.60
2022-08-25T11:54:21.044Z,7.20
2022-08-25T11:56:56.106Z,7.40
2022-08-25T12:00:02.930Z,5.60
2022-08-25T12:02:41.093Z,6.75
2022-08-25T12:05:38.352Z,6.45
2022-08-25T12:08:25.069Z,6.70
2022-08-25T12:10:59.062Z,6.80
2022-08-25T12:13:42.015Z,8.30
2022-08-25T12:16:39.196Z,6.70
2022-08-25T12:19:29.396Z,6.70
2022-08-25T12:22:22.408Z,6.28
2022-08-25T12:24:57.100Z,6.28
2022-08-25T12:27:33.372Z,6.18
2022-08-25T12:30:07.045Z,7.45
2022-08-25T12:32:58.068Z,7.50
2022-08-25T12:35:32.971Z,6.90
2022-08-25T12:38:06.782Z,6.38
2022-08-25T12:40:39.065Z,5.90
2022-08-25T12:43:26.791Z,7.18
2022-08-25T12:46:16.459Z,7.00
2022-08-25T12:49:12.334Z,7.55
2022-08-25T12:51:55.047Z,7.78
2022-08-25T12:54:40.394Z,11.13
2022-08-25T12:57:29.611Z,7.95
2022-08-25T13:00:01.364Z,7.80
2022-08-25T13:03:08.130Z,7.70
2022-08-25T13:06:03.434Z,10.50
2022-08-25T13:08:56.574Z,8.40
2022-08-25T13:11:35.359Z,7.93
2022-08-25T13:14:13.820Z,7.43
2022-08-25T13:16:53.075Z,6.45
2022-08-25T13:19:22.468Z,6.78
2022-08-25T13:21:51.313Z,7.22
2022-08-25T13:24:26.906Z,6.53
2022-08-25T13:27:00.890Z,7.32
2022-08-25T13:29:33.246Z,6.70
2022-08-25T13:32:12.816Z,6.20
2022-08-25T13:34:44.807Z,6.82
2022-08-25T13:37:33.352Z,8.27
2022-08-25T13:40:16.504Z,6.45
2022-08-25T13:42:55.673Z,8.05
2022-08-25T13:45:26.235Z,6.40
2022-08-25T13:47:55.916Z,8.43
2022-08-25T13:50:34.433Z,6.65
2022-08-25T13:53:06.552Z,5.40
2022-08-25T13:55:51.117Z,7.55
2022-08-25T13:58:32.469Z,8.15
2022-08-25T14:01:23.730Z,7.15
2022-08-25T14:04:24.653Z,6.22
2022-08-25T14:07:08.363Z,7.00
2022-08-25T14:09:42.338Z,5.78
2022-08-25T14:15:03.116Z,6.72
2022-08-25T14:17:40.206Z,8.10
2022-08-25T14:20:22.434Z,7.72
2022-08-25T14:22:58.069Z,6.57
2022-08-25T14:25:27.060Z,6.75
2022-08-25T14:28:08.063Z,7.55
2022-08-25T14:30:43.441Z,7.15
2022-08-25T14:33:16.596Z,6.53
2022-08-25T14:35:49.162Z,6.78
2022-08-25T14:38:18.842Z,6.65
2022-08-25T14:40:50.149Z,6.10
2022-08-25T14:43:23.865Z,6.03
2022-08-25T14:46:04.388Z,6.10
2022-08-25T14:48:37.125Z,7.95
2022-08-25T14:51:06.408Z,7.00
2022-08-25T14:53:35.291Z,7.57
2022-08-25T14:56:08.453Z,10.32
2022-08-25T14:58:51.389Z,7.10
2022-08-25T15:01:29.322Z,6.57
2022-08-25T15:04:03.513Z,6.15
2022-08-25T15:06:32.211Z,7.47
2022-08-25T15:09:08.671Z,6.72
2022-08-25T15:11:41.509Z,9.57
2022-08-25T15:14:12.125Z,8.75
2022-08-25T15:16:46.382Z,7.15
2022-08-25T15:19:17.801Z,7.13
2022-08-25T15:21:49.744Z,7.53
2022-08-25T15:24:19.652Z,9.07
2022-08-25T15:29:29.353Z,6.35
2022-08-25T15:32:00.592Z,7.22
2022-08-25T15:34:30.077Z,7.00
2022-08-25T15:36:59.565Z,7.38
2022-08-25T15:39:28.150Z,6.63
2022-08-25T15:41:57.290Z,8.90
2022-08-25T15:44:29.452Z,7.05
2022-08-25T15:47:00.563Z,7.13
2022-08-25T15:49:29.745Z,7.70
2022-08-25T15:52:00.424Z,7.30
2022-08-25T15:54:30.451Z,6.40
2022-08-25T15:56:59.866Z,6.85
2022-08-25T15:59:29.315Z,9.75
2022-08-25T16:01:59.529Z,7.68
2022-08-25T16:04:29.538Z,8.55
2022-08-25T16:06:58.696Z,8.80
2022-08-25T16:09:27.401Z,7.32
2022-08-25T16:11:58.965Z,7.70
2022-08-25T16:14:31.260Z,7.33
2022-08-25T16:17:01.083Z,10.18
2022-08-25T16:19:30.428Z,9.27
2022-08-25T16:21:59.023Z,6.70
2022-08-25T16:24:28.669Z,8.50
2022-08-25T16:27:11.765Z,10.20
2022-08-25T16:29:42.247Z,6.68
2022-08-25T16:32:13.613Z,10.15
2022-08-25T16:34:44.276Z,7.13
2022-08-25T16:37:13.809Z,9.48
2022-08-25T16:39:46.046Z,11.35
2022-08-25T16:42:14.832Z,12.73
2022-08-25T16:44:43.292Z,10.30
2022-08-25T16:47:14.480Z,12.45
2022-08-25T16:49:46.797Z,8.82
2022-08-25T16:52:33.634Z,12.15
2022-08-25T16:55:15.919Z,13.40
2022-08-25T16:57:47.490Z,9.07
2022-08-25T17:00:19.516Z,10.63
2022-08-25T17:02:51.594Z,8.52
2022-08-25T17:05:20.264Z,10.38
2022-08-25T17:08:08.886Z,8.73
2022-08-25T17:10:38.950Z,10.57
2022-08-25T17:13:08.141Z,8.68
2022-08-25T17:15:41.661Z,8.70
2022-08-25T17:18:12.878Z,10.57
2022-08-25T17:20:42.193Z,9.35
2022-08-25T17:23:12.955Z,9.68
2022-08-25T17:25:42.949Z,7.50
2022-08-25T17:28:12.789Z,13.13
2022-08-25T17:30:43.589Z,9.68
2022-08-25T17:33:14.508Z,10.32
2022-08-25T17:35:46.089Z,11.15
2022-08-25T17:38:15.547Z,9.50
2022-08-25T17:40:44.734Z,9.10
2022-08-25T17:43:13.609Z,9.00
2022-08-25T17:45:43.200Z,10.55
2022-08-25T17:48:13.331Z,12.15
2022-08-25T17:50:43.398Z,11.93
2022-08-25T17:53:12.622Z,8.82
2022-08-25T17:55:43.160Z,10.88
2022-08-25T17:58:13.948Z,12.18
2022-08-25T18:00:45.728Z,14.23
2022-08-25T18:03:14.391Z,12.40
2022-08-25T18:05:45.249Z,12.15
2022-08-25T18:08:16.220Z,11.15
2022-08-25T18:10:46.155Z,11.77
2022-08-25T18:13:15.257Z,12.50
2022-08-25T18:15:44.474Z,13.60
2022-08-25T18:18:13.998Z,13.77
2022-08-25T18:20:47.054Z,14.98
2022-08-25T18:23:15.780Z,12.52
2022-08-25T18:25:44.932Z,15.18
2022-08-25T18:28:13.550Z,13.60
2022-08-25T18:30:43.330Z,12.30
2022-08-25T18:33:12.082Z,10.70
2022-08-25T18:35:40.828Z,14.90
2022-08-25T18:38:30.768Z,15.40
2022-08-25T18:41:00.510Z,15.63
2022-08-25T18:43:31.334Z,16.02
2022-08-25T18:46:04.742Z,15.38
2022-08-25T18:48:34.628Z,18.90
2022-08-25T18:51:03.700Z,28.35
2022-08-25T18:53:49.788Z,13.52
2022-08-25T18:56:19.578Z,15.68
2022-08-25T18:58:48.630Z,19.83
2022-08-25T19:01:18.344Z,15.55
2022-08-25T19:03:47.523Z,15.13
2022-08-25T19:06:17.714Z,21.60
2022-08-25T19:08:49.610Z,14.73
2022-08-25T19:11:22.449Z,17.42
2022-08-25T19:13:51.843Z,14.82
2022-08-25T19:16:32.694Z,15.02
2022-08-25T19:19:03.920Z,17.10
2022-08-25T19:21:32.538Z,14.95
2022-08-25T19:24:03.051Z,14.40
2022-08-25T19:26:34.465Z,19.88
2022-08-25T19:29:03.120Z,13.93
2022-08-25T19:31:33.510Z,18.20
2022-08-25T19:34:03.215Z,18.88
2022-08-25T19:36:32.350Z,19.60
2022-08-25T19:39:04.004Z,17.25
2022-08-25T19:41:33.906Z,15.90
2022-08-25T19:44:03.248Z,17.77
2022-08-25T19:46:35.688Z,18.25
2022-08-25T19:49:08.397Z,19.20
2022-08-25T19:51:38.771Z,20.63
2022-08-25T19:54:10.266Z,20.27
2022-08-25T19:56:43.562Z,17.38
2022-08-25T19:59:12.733Z,19.65
2022-08-25T20:01:42.637Z,18.70
2022-08-25T20:04:11.654Z,18.35
2022-08-25T20:06:42.484Z,17.42
2022-08-25T20:09:21.101Z,16.50
2022-08-25T20:12:00.879Z,16.23
2022-08-25T20:14:29.510Z,18.52
2022-08-25T20:16:57.897Z,16.10
2022-08-25T20:19:26.501Z,17.08
2022-08-25T20:21:54.946Z,18.58
2022-08-25T20:24:42.396Z,16.73
2022-08-25T20:27:13.517Z,26.02
2022-08-25T20:29:44.599Z,17.13
2022-08-25T20:32:13.442Z,18.05
2022-08-25T20:34:42.470Z,14.75
2022-08-25T20:37:11.011Z,13.43
2022-08-25T20:39:42.444Z,21.42
2022-08-25T20:42:10.961Z,17.92
2022-08-25T20:44:42.235Z,18.83
2022-08-25T20:47:12.027Z,16.65
2022-08-25T20:49:41.108Z,15.02
2022-08-25T20:52:10.918Z,16.80
2022-08-25T20:54:39.372Z,17.38
2022-08-25T20:57:10.694Z,16.67
2022-08-25T20:59:39.434Z,18.75
2022-08-25T21:02:08.470Z,17.15
2022-08-25T21:04:39.283Z,16.95
2022-08-25T21:07:17.570Z,20.55
2022-08-25T21:09:46.825Z,19.50
2022-08-25T21:12:17.807Z,17.75
2022-08-25T21:14:46.350Z,18.77
2022-08-25T21:17:19.266Z,18.90
2022-08-25T21:22:17.776Z,16.75
2022-08-25T21:24:46.714Z,17.30
2022-08-25T21:27:16.725Z,23.45
2022-08-25T21:29:54.503Z,26.73
2022-08-25T21:32:24.955Z,19.67
2022-08-25T21:34:56.249Z,20.20
2022-08-25T21:37:25.604Z,21.58
2022-08-25T21:39:54.834Z,22.23
2022-08-25T21:42:25.631Z,19.20
2022-08-25T21:44:54.690Z,21.27
2022-08-25T21:47:23.433Z,22.58
2022-08-25T21:49:52.334Z,19.80
2022-08-25T21:52:20.993Z,19.48
2022-08-25T21:54:49.425Z,20.40
2022-08-25T21:57:23.735Z,19.83
2022-08-25T21:59:53.712Z,22.98
2022-08-25T22:02:24.139Z,27.05
2022-08-25T22:04:55.173Z,19.90
2022-08-25T22:07:24.909Z,19.98
2022-08-25T22:09:55.244Z,19.23
2022-08-25T22:12:24.947Z,22.35
2022-08-25T22:15:15.680Z,21.77
2022-08-25T22:17:44.515Z,19.15
2022-08-25T22:20:13.522Z,21.25
2022-08-25T22:22:41.984Z,21.70
2022-08-25T22:25:10.572Z,19.02
2022-08-25T22:27:39.267Z,16.85
2022-08-25T22:30:09.356Z,17.58
2022-08-25T22:32:40.000Z,18.38
2022-08-25T22:35:10.370Z,20.70
2022-08-25T22:37:38.785Z,21.05
2022-08-25T22:40:27.775Z,15.60
2022-08-25T22:42:57.708Z,17.10
2022-08-25T22:45:27.622Z,16.20
2022-08-25T22:47:57.522Z,22.17
2022-08-25T22:50:26.938Z,16.77
2022-08-25T22:52:55.618Z,18.02
2022-08-25T22:55:24.447Z,20.40
2022-08-25T22:57:56.719Z,18.00
2022-08-25T23:00:25.462Z,18.42
2022-08-25T23:02:54.371Z,22.10
2022-08-25T23:05:24.440Z,17.95
2022-08-25T23:07:52.984Z,17.17
2022-08-25T23:10:22.931Z,17.45
2022-08-25T23:12:51.745Z,19.02
2022-08-25T23:15:20.307Z,25.00
2022-08-25T23:17:48.671Z,16.13
2022-08-25T23:20:32.703Z,19.35
2022-08-25T23:23:03.042Z,18.88
2022-08-25T23:25:32.000Z,19.75
2022-08-25T23:28:00.825Z,20.17
2022-08-25T23:30:30.418Z,21.77
2022-08-25T23:32:58.964Z,17.75
2022-08-25T23:35:27.463Z,16.05
2022-08-25T23:37:58.964Z,18.63
2022-08-25T23:40:28.778Z,14.68
2022-08-25T23:42:57.429Z,21.50
2022-08-25T23:45:26.048Z,25.35
2022-08-25T23:47:55.090Z,21.85
2022-08-25T23:50:23.576Z,19.60
2022-08-25T23:52:53.403Z,23.92
2022-08-25T23:55:22.060Z,23.52
2022-08-25T23:57:52.128Z,17.85
